KIAD/IAD METAR and TAF weather

Enter ICAO airport designator
Station Type Date Time Source
KIAD METAR 2019/02/20 16:52 UTC NOAA

KIAD 201652Z 11004KT 1/2SM R01R/2800V4500FT PLSN FZFG VV008 M02/M03 A3047 RMK AO2 TWR VIS 3/4 SLP323 PLE24PLB41 P0015 T10171028


Station Type Date Time Source
KIAD Decoded METAR 2019/02/20 16:52 UTC NOAA

DULLES INTERNATIONAL AIRPORT, VA, United States (KIAD) 38-56N 077-27W 93M
Feb 20, 2019 - 11:52 AM EST / 2019.02.20 1652 UTC
Wind: from the ESE (110 degrees) at 5 MPH (4 KT) (direction variable):0
Visibility: 1/2 mile(s):0
Sky conditions: obscured
Weather: ice pellets, snow; freezing fog
Precipitation last hour: 0.15 inches
Temperature: 28.9 F (-1.7 C)
Windchill: 23 F (-5 C):1
Dew Point: 27.0 F (-2.8 C)
Relative Humidity: 92%
Pressure (altimeter): 30.47 in. Hg (1031 hPa)
ob: KIAD 201652Z 11004KT 1/2SM R01R/2800V4500FT PLSN FZFG VV008 M02/M03 A3047 RMK AO2 TWR VIS 3/4 SLP323 PLE24PLB41 P0015 T10171028
cycle: 17

Station Type Date Time Source
KIAD TAF 2019/02/20 15:58 UTC NOAA

TAF
AMD KIAD 201456Z 2015/2118 12006KT 1/2SM SN FG OVC008
FM201700 12007KT 1 1/2SM -FZRAPL OVC003
FM202100 12004KT 1 1/2SM -RA OVC003
FM210700 21004KT 4SM -RA OVC003
FM210900 21005KT 4SM BR OVC003
FM211500 30006KT P6SM SCT200


Example: see airport list